Time;durP1;ratioP1;P1;durP2;ratioP2;P2;SDS_P1;SDS_P2;PMS_P1;PMS_P2;Temp;Humidity;BMP_temperature;BMP_pressure;BME280_temperature;BME280_humidity;BME280_pressure;Samples;Min_cycle;Max_cycle;Signal;HPM_P1;HPM_P2
2021/12/07 00:02:10;;;;;;;85.60;33.67;;;;;;;-1.27;92.58;100413.16;3497705;82;99042;-87
2021/12/07 00:07:11;;;;;;;61.30;23.80;;;;;;;-1.32;92.48;100412.69;3475130;82;99309;-84
2021/12/07 00:12:12;;;;;;;57.83;22.90;;;;;;;-1.37;92.42;100409.30;3491250;81;99306;-86
2021/12/07 00:17:13;;;;;;;30.43;13.17;;;;;;;-1.39;92.20;100406.08;3509986;80;99564;-85
2021/12/07 00:22:14;;;;;;;103.07;35.43;;;;;;;-1.44;92.21;100398.89;3506854;81;99187;-86
2021/12/07 00:27:15;;;;;;;31.80;13.50;;;;;;;-1.44;92.43;100404.29;3513535;81;32480;-86
2021/12/07 00:37:17;;;;;;;25.33;9.90;;;;;;;-1.44;91.86;100411.57;3524363;81;99641;-85
2021/12/07 00:42:18;;;;;;;21.00;10.00;;;;;;;-1.44;92.20;100410.22;3524013;81;99603;-86
2021/12/07 00:47:19;;;;;;;19.83;9.40;;;;;;;-1.39;92.20;100408.25;3518831;81;99156;-86
2021/12/07 00:52:20;;;;;;;21.53;10.47;;;;;;;-1.37;92.11;100414.70;3528833;81;99409;-85
2021/12/07 00:57:21;;;;;;;21.93;10.63;;;;;;;-1.27;93.06;100406.41;3530070;81;86795;-85
2021/12/07 01:02:22;;;;;;;20.70;10.20;;;;;;;-1.27;93.06;100406.41;3521873;81;99295;-86
2021/12/07 01:08:18;;;;;;;18.47;8.33;;;;;;;-1.28;92.03;100402.91;3542136;81;99252;-87
2021/12/07 01:28:31;;;;;;;17.70;8.97;;;;;;;-1.45;91.73;100393.25;3541778;81;106310;-85
2021/12/07 01:33:46;;;;;;;20.60;9.95;;;;;;;-1.36;92.35;100394.70;3504223;81;98921;-85
2021/12/07 01:44:07;;;;;;;20.92;9.63;;;;;;;-1.43;91.09;100399.70;3526454;81;98929;-85
2021/12/07 01:59:38;;;;;;;21.20;9.83;;;;;;;-1.40;91.75;100399.91;3521588;81;99062;-86
2021/12/07 02:04:39;;;;;;;18.00;8.57;;;;;;;-1.43;91.37;100400.48;3526327;81;99417;-85
2021/12/07 02:09:45;;;;;;;23.27;12.55;;;;;;;-1.46;91.36;100394.89;3515438;81;52405;-85
2021/12/07 02:14:45;;;;;;;19.12;9.45;;;;;;;-1.50;91.39;100393.34;3516736;81;99089;-85
2021/12/07 02:19:46;;;;;;;15.93;8.67;;;;;;;-1.49;91.44;100386.05;3526534;81;98817;-85
2021/12/07 02:24:47;;;;;;;17.77;8.13;;;;;;;-1.47;91.56;100388.71;3502029;80;99013;-84
2021/12/07 02:29:48;;;;;;;25.53;10.70;;;;;;;-1.46;91.16;100382.74;3486378;82;99020;-84
2021/12/07 02:34:59;;;;;;;23.10;9.60;;;;;;;-1.54;90.62;100384.23;3505888;81;99270;-85
2021/12/07 02:39:59;;;;;;;19.20;8.33;;;;;;;-1.65;90.53;100383.39;3515154;81;34588;-86
2021/12/07 02:45:01;;;;;;;17.67;8.30;;;;;;;-1.63;90.83;100370.39;3482135;82;98828;-85
2021/12/07 02:50:05;;;;;;;18.57;7.87;;;;;;;-1.75;90.37;100376.25;3488312;80;98937;-83
2021/12/07 02:55:07;;;;;;;15.97;7.30;;;;;;;-1.80;90.59;100380.38;3485058;81;99451;-84
2021/12/07 03:00:17;;;;;;;20.13;9.63;;;;;;;-1.76;91.03;100380.05;3500750;81;98960;-85
2021/12/07 03:26:31;;;;;;;18.10;7.30;;;;;;;-1.89;90.09;100370.58;3533982;81;98805;-84
2021/12/07 03:31:33;;;;;;;14.80;7.17;;;;;;;-1.97;89.77;100359.92;3552248;80;99079;-84
2021/12/07 03:36:35;;;;;;;15.07;7.03;;;;;;;-2.02;89.87;100355.96;3532984;81;99043;-83
2021/12/07 03:41:36;;;;;;;13.83;6.60;;;;;;;-2.06;89.99;100360.37;3555619;80;99052;-84
2021/12/07 03:46:36;;;;;;;16.23;7.70;;;;;;;-1.99;90.45;100374.80;3530474;81;98997;-83
2021/12/07 03:51:37;;;;;;;21.10;8.60;;;;;;;-1.91;90.79;100377.61;3549100;80;98874;-83
2021/12/07 03:56:38;;;;;;;19.60;8.97;;;;;;;-1.85;90.82;100376.45;3555095;81;98893;-84
2021/12/07 04:01:39;;;;;;;18.50;9.00;;;;;;;-1.87;90.59;100384.59;3516846;81;99021;-83
2021/12/07 04:06:41;;;;;;;15.40;7.33;;;;;;;-1.87;90.84;100379.20;3537516;81;99114;-83
2021/12/07 04:11:42;;;;;;;16.50;7.77;;;;;;;-1.86;90.82;100384.27;3535686;81;99012;-82
2021/12/07 04:16:43;;;;;;;20.00;9.20;;;;;;;-1.89;90.62;100377.33;3552296;81;98991;-83
2021/12/07 04:21:44;;;;;;;24.60;11.70;;;;;;;-1.89;91.02;100377.33;3538233;81;98858;-83
2021/12/07 04:26:45;;;;;;;19.90;11.03;;;;;;;-1.93;90.82;100372.27;3550923;81;99371;-83
2021/12/07 04:31:46;;;;;;;20.53;9.93;;;;;;;-2.03;90.53;100373.24;3549974;81;99013;-83
2021/12/07 04:36:46;;;;;;;23.17;11.47;;;;;;;-2.14;90.63;100372.37;3538342;81;98944;-82
2021/12/07 04:41:49;;;;;;;20.90;9.30;;;;;;;-2.22;90.71;100373.03;3524304;81;99595;-82
2021/12/07 04:47:43;;;;;;;17.40;8.17;;;;;;;-2.28;90.71;100370.16;3547102;80;99093;-82
2021/12/07 05:02:38;;;;;;;18.90;9.73;;;;;;;-2.44;91.45;100377.70;3536411;79;99125;-82
2021/12/07 05:07:46;;;;;;;18.33;8.83;;;;;;;-2.48;91.19;100381.25;3552394;80;98917;-82
2021/12/07 05:18:02;;;;;;;18.77;8.10;;;;;;;-2.67;91.13;100375.86;3545604;81;99362;-82
2021/12/07 05:38:55;;;;;;;21.27;10.70;;;;;;;-2.85;92.08;100399.55;3543475;81;98997;-81
2021/12/07 05:43:56;;;;;;;31.13;13.83;;;;;;;-2.89;92.05;100402.55;3557381;81;99391;-81
2021/12/07 05:48:58;;;;;;;23.80;11.43;;;;;;;-2.96;92.07;100400.77;3546936;81;99215;-80
2021/12/07 05:53:58;;;;;;;50.13;20.20;;;;;;;-3.01;92.34;100416.98;3557425;81;99677;-80
2021/12/07 05:58:59;;;;;;;37.90;16.53;;;;;;;-3.09;92.16;100418.98;3540885;81;99207;-80
2021/12/07 06:04:00;;;;;;;25.88;12.82;;;;;;;-3.15;92.55;100423.36;3511838;82;99147;-82
2021/12/07 06:09:03;;;;;;;27.95;13.32;;;;;;;-3.18;92.80;100421.25;3517013;82;98958;-81
2021/12/07 06:14:04;;;;;;;21.17;11.03;;;;;;;-3.27;92.31;100428.34;3498682;81;99164;-81
2021/12/07 06:19:04;;;;;;;23.50;10.37;;;;;;;-3.37;92.43;100440.02;3527932;82;99290;-80
2021/12/07 06:24:05;;;;;;;20.08;10.25;;;;;;;-3.43;92.40;100445.73;3522448;82;99155;-81
2021/12/07 06:29:06;;;;;;;21.23;9.87;;;;;;;-3.42;93.13;100459.44;3526274;81;99332;-80
2021/12/07 06:34:10;;;;;;;27.20;11.60;;;;;;;-3.41;93.12;100457.00;3514312;81;98697;-81
2021/12/07 06:39:10;;;;;;;28.70;14.00;;;;;;;-3.43;93.06;100460.52;3529808;81;99066;-80
2021/12/07 06:44:11;;;;;;;29.63;12.83;;;;;;;-3.45;93.07;100454.64;3518474;81;99509;-81
2021/12/07 06:49:12;;;;;;;31.10;14.07;;;;;;;-3.45;93.18;100464.06;3510424;82;99243;-81
2021/12/07 06:54:14;;;;;;;87.80;34.95;;;;;;;-3.46;93.28;100458.39;3494134;82;99365;-81
2021/12/07 06:59:14;;;;;;;84.13;33.53;;;;;;;-3.43;93.42;100460.52;3522515;81;99293;-82
2021/12/07 07:04:16;;;;;;;57.98;24.15;;;;;;;-3.45;93.56;100466.19;3527493;81;98904;-81
2021/12/07 07:09:17;;;;;;;42.23;18.93;;;;;;;-3.42;93.57;100463.47;3519921;82;99040;-82
2021/12/07 07:14:18;;;;;;;33.63;15.08;;;;;;;-3.39;93.58;100463.70;3522152;81;99094;-82
2021/12/07 07:19:19;;;;;;;32.77;14.70;;;;;;;-3.39;93.76;100465.61;3515411;82;100113;-81
2021/12/07 07:24:20;;;;;;;32.27;15.47;;;;;;;-3.35;93.73;100476.03;3523731;82;99949;-83
2021/12/07 07:29:21;;;;;;;27.17;13.13;;;;;;;-3.31;93.64;100475.73;3519266;80;99325;-77
2021/12/07 07:34:22;;;;;;;28.83;13.37;;;;;;;-3.28;93.63;100480.56;3514023;81;98848;-82
2021/12/07 07:39:23;;;;;;;30.10;13.50;;;;;;;-3.28;93.90;100480.56;3500298;82;99072;-80
2021/12/07 07:44:23;;;;;;;31.17;13.80;;;;;;;-3.25;93.91;100485.36;3509427;82;99057;-79
2021/12/07 07:49:24;;;;;;;29.30;13.23;;;;;;;-3.23;93.87;100486.67;3512808;82;99277;-79
2021/12/07 07:54:25;;;;;;;27.95;13.50;;;;;;;-3.17;93.95;100490.92;3503484;82;99201;-79
2021/12/07 07:59:26;;;;;;;28.53;13.90;;;;;;;-3.13;93.90;100496.00;3497915;82;99299;-79
2021/12/07 08:04:26;;;;;;;29.03;14.77;;;;;;;-3.10;94.07;100493.28;3518020;82;99664;-79
2021/12/07 08:09:27;;;;;;;32.00;14.50;;;;;;;-3.07;94.01;100492.72;3513713;82;99507;-80
2021/12/07 08:14:28;;;;;;;31.07;14.53;;;;;;;-3.02;94.00;100498.84;3509440;82;99176;-81
2021/12/07 08:19:29;;;;;;;31.70;16.97;;;;;;;-2.98;94.48;100486.42;3532114;81;99195;-80
2021/12/07 08:24:30;;;;;;;41.02;17.52;;;;;;;-2.92;94.14;100485.80;3508111;82;99283;-80
2021/12/07 08:29:31;;;;;;;37.80;17.63;;;;;;;-2.88;94.23;100494.92;3522927;82;98493;-79
2021/12/07 08:34:32;;;;;;;34.60;14.47;;;;;;;-2.90;94.04;100489.81;3519209;82;98862;-80
2021/12/07 08:39:34;;;;;;;38.92;16.85;;;;;;;-2.86;94.35;100487.34;3519058;81;99584;-80
2021/12/07 08:44:36;;;;;;;31.67;15.40;;;;;;;-2.83;94.38;100496.20;3525580;82;99028;-80
2021/12/07 08:49:37;;;;;;;30.13;15.40;;;;;;;-2.76;94.38;100492.08;3512155;81;99395;-80
2021/12/07 08:59:45;;;;;;;35.27;16.57;;;;;;;-2.76;94.12;100493.42;3456461;83;99224;-80
2021/12/07 09:04:49;;;;;;;32.80;14.37;;;;;;;-2.78;94.16;100486.73;3486145;82;99209;-80
2021/12/07 09:09:50;;;;;;;32.00;14.50;;;;;;;-2.72;94.23;100485.57;3504539;82;31568;-80
2021/12/07 09:14:53;;;;;;;33.23;14.43;;;;;;;-2.71;94.11;100496.06;3494284;82;99235;-79
2021/12/07 09:19:54;;;;;;;30.50;14.73;;;;;;;-2.69;94.18;100497.91;3487345;81;99913;-80
2021/12/07 09:24:55;;;;;;;33.07;14.77;;;;;;;-2.61;94.23;100502.68;3498000;82;99208;-80
2021/12/07 09:29:56;;;;;;;35.23;13.97;;;;;;;-2.55;93.82;100502.05;3494558;82;99546;-80
2021/12/07 09:34:58;;;;;;;29.57;14.43;;;;;;;-2.53;93.76;100516.02;3494376;82;99729;-80
2021/12/07 09:39:59;;;;;;;31.73;14.77;;;;;;;-2.43;94.17;100507.81;3505490;81;35536;-80
2021/12/07 09:45:01;;;;;;;35.57;16.37;;;;;;;-2.38;93.80;100513.95;3520901;81;99394;-81
2021/12/07 09:50:07;;;;;;;37.60;15.73;;;;;;;-2.38;93.73;100499.13;3511702;81;99273;-81
2021/12/07 09:55:09;;;;;;;36.67;17.60;;;;;;;-2.37;93.88;100494.00;3494469;82;99227;-80
2021/12/07 10:00:14;;;;;;;35.03;17.20;;;;;;;-2.29;93.93;100492.55;3507060;81;99298;-80
2021/12/07 10:05:18;;;;;;;30.83;14.70;;;;;;;-2.19;94.13;100494.55;3494492;82;99839;-81
2021/12/07 10:10:30;;;;;;;33.20;15.03;;;;;;;-2.16;93.76;100483.19;3501334;82;27035;-81
2021/12/07 10:15:32;;;;;;;35.55;16.65;;;;;;;-2.14;94.08;100479.64;3511525;82;99176;-81
2021/12/07 10:20:42;;;;;;;36.53;16.80;;;;;;;-2.06;93.93;100481.70;3476299;82;99118;-81
2021/12/07 10:25:51;;;;;;;37.13;16.55;;;;;;;-1.96;93.91;100487.48;3502415;82;99236;-80
2021/12/07 10:30:51;;;;;;;35.93;19.20;;;;;;;-1.86;93.70;100482.72;3485194;82;99769;-81
2021/12/07 10:36:20;;;;;;;35.47;16.70;;;;;;;-1.75;93.77;100483.38;3499617;82;99230;-81
2021/12/07 10:41:24;;;;;;;32.57;15.77;;;;;;;-1.68;93.16;100478.39;3500391;83;99136;-82
2021/12/07 10:46:36;;;;;;;39.33;18.13;;;;;;;-1.53;93.17;100464.65;3476501;81;98764;-82
2021/12/07 10:51:38;;;;;;;38.80;19.30;;;;;;;-1.54;93.04;100473.28;3494887;82;98966;-81
2021/12/07 10:56:39;;;;;;;36.17;18.20;;;;;;;-1.52;92.89;100471.11;3494924;82;98829;-80
2021/12/07 11:01:46;;;;;;;33.53;17.63;;;;;;;-1.46;92.66;100465.88;3495630;81;99383;-80
2021/12/07 11:07:17;;;;;;;42.17;18.97;;;;;;;-1.40;92.75;100462.52;3513830;82;98967;-80
2021/12/07 11:12:20;;;;;;;38.30;17.47;;;;;;;-1.35;92.46;100457.84;3489845;82;99561;-81
2021/12/07 11:17:29;;;;;;;35.33;16.60;;;;;;;-1.43;92.22;100466.61;3505924;82;99203;-79
2021/12/07 11:22:35;;;;;;;37.42;17.45;;;;;;;-1.40;92.41;100463.33;3489639;81;99210;-80
2021/12/07 11:32:59;;;;;;;38.53;16.00;;;;;;;-1.37;92.57;100481.61;3488729;82;99026;-81
2021/12/07 11:38:05;;;;;;;34.60;16.93;;;;;;;-1.26;92.75;100474.16;3512237;82;99606;-81
2021/12/07 11:43:17;;;;;;;34.60;17.00;;;;;;;-1.15;92.55;100468.25;3510773;82;99286;-81
2021/12/07 11:48:18;;;;;;;39.10;18.30;;;;;;;-1.05;92.66;100470.77;3523622;81;99387;-81
2021/12/07 11:53:23;;;;;;;38.03;20.13;;;;;;;-1.08;91.96;100468.67;3512839;82;99115;-82
2021/12/07 11:58:24;;;;;;;33.70;16.27;;;;;;;-1.08;91.77;100465.98;3516607;83;26812;-82
2021/12/07 12:03:26;;;;;;;39.50;17.63;;;;;;;-1.02;92.07;100467.48;3513606;81;98978;-81
2021/12/07 12:08:27;;;;;;;38.80;17.90;;;;;;;-0.98;91.85;100463.09;3526894;81;98957;-81
2021/12/07 12:14:06;;;;;;;40.65;18.98;;;;;;;-0.97;91.61;100457.93;3509143;81;99101;-84
2021/12/07 12:19:21;;;;;;;42.40;20.50;;;;;;;-1.02;91.35;100449.92;3540737;81;99177;-81
2021/12/07 12:24:54;;;;;;;37.43;19.03;;;;;;;-1.01;91.24;100448.81;3514991;82;99571;-82
2021/12/07 12:29:58;;;;;;;42.67;20.10;;;;;;;-1.00;91.36;100446.92;3526696;81;99038;-81
2021/12/07 12:35:00;;;;;;;37.35;18.62;;;;;;;-1.04;91.18;100450.75;3510563;81;99115;-82
2021/12/07 12:40:11;;;;;;;39.47;18.47;;;;;;;-1.00;91.51;100454.46;3522869;82;35740;-82
2021/12/07 12:45:24;;;;;;;36.67;19.10;;;;;;;-1.02;91.16;100448.57;3546989;80;99206;-82
2021/12/07 12:50:49;;;;;;;42.10;17.77;;;;;;;-0.95;91.64;100462.47;3553481;81;99266;-82
2021/12/07 12:56:00;;;;;;;46.67;22.80;;;;;;;-0.87;91.71;100456.92;3559062;81;99040;-82
2021/12/07 13:01:15;;;;;;;44.95;20.52;;;;;;;-0.86;91.61;100457.98;3546863;82;99089;-83
2021/12/07 13:06:37;;;;;;;48.03;25.43;;;;;;;-0.92;91.22;100448.38;3530507;81;99179;-84
2021/12/07 13:11:45;;;;;;;49.50;24.33;;;;;;;-0.90;91.45;100452.11;3539060;81;99086;-82
2021/12/07 13:16:53;;;;;;;52.33;23.37;;;;;;;-0.93;91.39;100450.80;3532416;81;98990;-83
2021/12/07 13:21:58;;;;;;;44.47;22.37;;;;;;;-0.96;91.45;100441.16;3536652;81;99073;-82
2021/12/07 13:27:09;;;;;;;49.37;24.50;;;;;;;-0.96;91.59;100443.31;3522860;81;98964;-82
2021/12/07 13:32:06;;;;;;;47.38;22.67;;;;;;;-1.00;91.04;100446.92;3520594;81;98973;-82
2021/12/07 13:37:11;;;;;;;50.23;21.87;;;;;;;-1.06;91.58;100445.40;3542240;81;99444;-82
2021/12/07 13:42:20;;;;;;;42.03;20.97;;;;;;;-1.04;91.46;100452.67;3527538;80;98993;-82
2021/12/07 13:47:43;;;;;;;42.62;20.70;;;;;;;-1.09;91.61;100454.12;3545153;81;99095;-82
2021/12/07 13:52:51;;;;;;;48.13;22.13;;;;;;;-1.06;91.59;100458.36;3540525;81;99036;-81
2021/12/07 13:58:00;;;;;;;41.43;21.17;;;;;;;-1.03;91.85;100465.07;3525427;81;243974;-82
2021/12/07 14:03:05;;;;;;;50.28;22.30;;;;;;;-1.10;91.69;100464.11;3495720;82;203053;-82
2021/12/07 14:08:11;;;;;;;46.03;20.27;;;;;;;-1.08;91.93;100466.52;3498328;82;99167;-81
2021/12/07 14:13:15;;;;;;;55.50;25.50;;;;;;;-1.08;91.82;100471.37;3507289;81;99224;-82
2021/12/07 14:18:24;;;;;;;53.37;25.77;;;;;;;-1.19;91.59;100471.31;3462962;82;99171;-82
2021/12/07 14:23:40;;;;;;;63.00;28.73;;;;;;;-1.21;91.80;100475.41;3489899;82;99735;-82
2021/12/07 14:28:46;;;;;;;66.15;31.02;;;;;;;-1.25;91.71;100484.66;3491594;82;26693;-82
2021/12/07 14:33:57;;;;;;;68.03;33.27;;;;;;;-1.32;91.99;100489.62;3430288;84;99342;-82
2021/12/07 14:39:05;;;;;;;61.80;29.27;;;;;;;-1.30;92.37;100488.80;3382243;84;99422;-82
2021/12/07 14:44:06;;;;;;;75.70;36.48;;;;;;;-1.30;92.30;100500.95;3507902;81;99310;-82
2021/12/07 14:49:07;;;;;;;55.20;28.87;;;;;;;-1.28;92.42;100505.48;3517657;82;99323;-82
2021/12/07 14:54:10;;;;;;;56.13;29.17;;;;;;;-1.28;92.33;100509.54;3502576;81;99476;-82
2021/12/07 14:59:15;;;;;;;55.87;27.93;;;;;;;-1.32;92.41;100496.94;3512845;81;99722;-82
2021/12/07 15:04:18;;;;;;;62.50;32.65;;;;;;;-1.30;92.61;100505.53;3501243;82;98922;-82
2021/12/07 15:09:20;;;;;;;52.20;25.57;;;;;;;-1.31;92.61;100503.38;3512154;82;99075;-82
2021/12/07 15:14:24;;;;;;;65.23;34.53;;;;;;;-1.28;92.46;100505.48;3485997;82;99411;-82
2021/12/07 15:19:26;;;;;;;56.97;31.13;;;;;;;-1.33;92.63;100508.81;3490233;82;99263;-82
2021/12/07 15:24:33;;;;;;;56.83;30.52;;;;;;;-1.33;92.77;100493.43;3486700;82;99591;-82
2021/12/07 15:29:36;;;;;;;;;;;;;;;-1.29;92.93;100497.68;3498903;82;99154;-82
2021/12/07 15:34:41;;;;;;;68.83;30.77;;;;;;;-1.30;92.70;100495.55;3475451;82;85033;-82
2021/12/07 15:39:55;;;;;;;63.17;30.73;;;;;;;-1.35;92.92;100494.82;3500775;82;99085;-82
2021/12/07 15:45:08;;;;;;;58.63;26.93;;;;;;;-1.34;92.88;100501.28;3494036;82;99354;-82
2021/12/07 15:50:19;;;;;;;55.87;24.80;;;;;;;-1.36;93.05;100494.58;3471785;83;99415;-82
2021/12/07 15:55:31;;;;;;;61.20;28.97;;;;;;;-1.36;92.99;100495.92;3485859;82;99389;-83
2021/12/07 16:00:49;;;;;;;56.67;26.97;;;;;;;-1.36;93.24;100494.58;3475900;82;99307;-82
2021/12/07 16:05:57;;;;;;;56.77;26.23;;;;;;;-1.32;93.17;100478.05;3375561;85;99297;-83
2021/12/07 16:11:06;;;;;;;66.20;29.00;;;;;;;-1.32;93.12;100488.28;3373114;85;99158;-83
2021/12/07 16:16:15;;;;;;;59.35;27.40;;;;;;;-1.43;93.51;100486.85;3488941;82;99187;-83
2021/12/07 16:21:18;;;;;;;61.70;26.50;;;;;;;-1.43;93.51;100486.85;3493013;81;99379;-83
2021/12/07 16:26:20;;;;;;;60.70;26.40;;;;;;;-1.33;93.13;100505.58;3490216;82;99010;-83
2021/12/07 16:31:23;;;;;;;58.27;26.37;;;;;;;-1.32;93.29;100518.54;3508794;82;99273;-83
2021/12/07 16:36:26;;;;;;;60.53;28.67;;;;;;;-1.28;93.26;100527.09;3511909;82;99502;-82
2021/12/07 16:41:28;;;;;;;64.33;28.37;;;;;;;-1.26;93.40;100520.83;3496999;82;99932;-83
2021/12/07 16:46:29;;;;;;;55.93;24.10;;;;;;;-1.24;93.16;100514.61;3502144;81;99020;-84
2021/12/07 16:51:33;;;;;;;57.00;25.23;;;;;;;-1.28;93.24;100514.94;3499415;82;99082;-83
2021/12/07 16:56:34;;;;;;;52.45;24.18;;;;;;;-1.22;93.33;100512.97;3510085;82;99033;-85
2021/12/07 17:01:37;;;;;;;58.47;23.73;;;;;;;-1.18;93.22;100515.30;3516683;81;99252;-85
2021/12/07 17:06:38;;;;;;;58.75;27.15;;;;;;;-1.22;92.68;100514.31;3516551;82;99716;-84
2021/12/07 17:11:39;;;;;;;70.93;33.53;;;;;;;-1.25;92.72;100509.50;3493147;81;99563;-84
2021/12/07 17:16:40;;;;;;;55.37;25.20;;;;;;;-1.28;92.63;100516.83;3516836;82;34911;-82
2021/12/07 17:21:41;;;;;;;60.43;26.83;;;;;;;-1.32;92.46;100511.22;3499083;82;108231;-82
2021/12/07 17:26:42;;;;;;;55.77;24.97;;;;;;;-1.31;92.46;100522.27;3491764;82;99259;-86
2021/12/07 17:31:44;;;;;;;53.83;25.97;;;;;;;-1.28;92.58;100526.27;3472553;81;99200;-86
2021/12/07 17:36:45;;;;;;;58.87;31.47;;;;;;;-1.32;92.38;100523.37;3488202;81;99323;-85
2021/12/07 17:41:47;;;;;;;60.57;27.03;;;;;;;-1.32;92.30;100517.19;3400515;84;99631;-84
2021/12/07 17:46:56;;;;;;;56.53;24.00;;;;;;;-1.33;91.66;100515.56;3417334;84;34881;-84
2021/12/07 17:51:58;;;;;;;53.60;26.83;;;;;;;-1.32;91.77;100521.23;3392669;85;99304;-85
2021/12/07 17:57:03;;;;;;;58.33;29.87;;;;;;;-1.34;91.70;100508.03;3406120;84;99098;-84
2021/12/07 18:02:07;;;;;;;52.58;24.35;;;;;;;-1.35;91.98;100504.27;3496330;82;99300;-83
2021/12/07 18:07:09;;;;;;;66.17;32.00;;;;;;;-1.34;91.89;100507.22;3520901;82;99748;-81
2021/12/07 18:12:14;;;;;;;59.03;29.07;;;;;;;-1.35;92.01;100498.88;3512462;81;99523;-84
2021/12/07 18:17:22;;;;;;;55.27;25.87;;;;;;;-1.38;92.05;100507.58;3514241;82;99245;-84
2021/12/07 18:22:23;;;;;;;53.37;22.50;;;;;;;-1.43;92.11;100505.75;3476152;82;99293;-83
2021/12/07 18:27:24;;;;;;;62.33;25.62;;;;;;;-1.44;92.05;100520.88;3487884;82;99113;-82
2021/12/07 18:32:27;;;;;;;51.20;22.52;;;;;;;-1.44;92.05;100523.04;3430935;83;99421;-82
2021/12/07 18:37:29;;;;;;;52.33;22.83;;;;;;;-1.46;92.08;100519.84;3452578;84;99177;-83
2021/12/07 18:42:30;;;;;;;52.93;24.23;;;;;;;-1.48;92.08;100519.33;3472037;81;99237;-83
2021/12/07 18:47:32;;;;;;;54.93;23.27;;;;;;;-1.44;92.10;100518.18;3480718;82;99281;-82
2021/12/07 18:52:33;;;;;;;55.80;24.33;;;;;;;-1.49;91.89;100510.98;3506176;82;99198;-83
2021/12/07 18:57:35;;;;;;;46.63;22.55;;;;;;;-1.51;91.88;100520.47;3476286;82;99149;-83
2021/12/07 19:02:41;;;;;;;47.43;20.93;;;;;;;-1.53;91.93;100503.22;3491799;83;99389;-84
2021/12/07 19:07:42;;;;;;;41.88;19.25;;;;;;;-1.56;91.81;100510.56;3523698;82;99181;-84
2021/12/07 19:12:45;;;;;;;43.10;19.60;;;;;;;-1.61;91.53;100505.25;3490767;82;99324;-82
2021/12/07 19:17:47;;;;;;;51.07;22.27;;;;;;;-1.66;91.22;100512.61;3515306;81;99080;-84
2021/12/07 19:22:52;;;;;;;47.57;21.17;;;;;;;-1.72;91.57;100507.05;3473258;82;99417;-83
2021/12/07 19:27:54;;;;;;;53.07;24.50;;;;;;;-1.73;91.71;100500.87;3510342;81;98882;-83
2021/12/07 19:32:59;;;;;;;46.63;21.12;;;;;;;-1.75;91.56;100490.12;3495218;82;99578;-82
2021/12/07 19:38:05;;;;;;;42.03;19.37;;;;;;;-1.76;91.72;100496.61;3517599;82;99179;-83
2021/12/07 19:43:09;;;;;;;48.27;21.13;;;;;;;-1.73;91.64;100501.40;3500686;82;99703;-80
2021/12/07 19:48:11;;;;;;;49.67;22.33;;;;;;;-1.77;91.45;100493.09;3494116;82;99212;-81
2021/12/07 19:53:16;;;;;;;46.60;21.45;;;;;;;-1.81;91.39;100491.30;3496531;82;99217;-80
2021/12/07 19:58:17;;;;;;;45.37;22.30;;;;;;;-1.84;91.42;100487.82;3502847;82;44549;-82
2021/12/07 20:03:20;;;;;;;43.23;19.53;;;;;;;-1.88;91.23;100474.66;3493006;81;99006;-82
2021/12/07 20:08:22;;;;;;;47.27;21.07;;;;;;;-1.88;91.42;100470.62;3509400;82;99103;-81
2021/12/07 20:13:26;;;;;;;51.87;22.17;;;;;;;-1.93;91.44;100462.07;3507429;82;99284;-83
2021/12/07 20:18:30;;;;;;;47.93;21.70;;;;;;;-1.98;91.36;100451.36;3511217;82;101812;-83
2021/12/07 20:23:36;;;;;;;44.10;17.62;;;;;;;-2.01;91.67;100455.19;3503006;82;99477;-83
2021/12/07 20:28:37;;;;;;;43.20;18.50;;;;;;;-2.01;91.86;100457.36;3497511;81;25917;-85
2021/12/07 20:33:40;;;;;;;49.20;20.60;;;;;;;-2.06;91.95;100437.74;3504379;82;99177;-83
2021/12/07 20:38:43;;;;;;;45.73;21.83;;;;;;;-2.03;92.09;100440.65;3507593;82;98309;-84
2021/12/07 20:43:53;;;;;;;43.23;20.57;;;;;;;-2.01;91.95;100454.66;3423232;84;99316;-84
2021/12/07 20:49:00;;;;;;;45.07;21.10;;;;;;;-2.00;92.12;100452.75;3418108;84;98965;-83
2021/12/07 20:54:02;;;;;;;44.98;18.77;;;;;;;-1.95;92.29;100454.83;3416275;84;99160;-83
2021/12/07 20:59:06;;;;;;;51.15;21.05;;;;;;;-1.94;92.15;100451.56;3419769;84;99232;-82
2021/12/07 21:04:08;;;;;;;45.45;21.00;;;;;;;-1.95;92.18;100449.97;3420672;84;99096;-82
2021/12/07 21:09:09;;;;;;;49.10;23.10;;;;;;;-1.97;92.28;100446.78;3414961;84;99168;-82
2021/12/07 21:14:10;;;;;;;51.57;22.70;;;;;;;-1.96;92.22;100446.49;3404974;84;99307;-82
2021/12/07 21:19:12;;;;;;;45.50;20.07;;;;;;;-1.97;92.24;100440.82;3410244;84;99187;-83
2021/12/07 21:24:13;;;;;;;45.70;19.60;;;;;;;-1.96;92.42;100449.19;3411399;84;99416;-83
2021/12/07 21:29:14;;;;;;;45.33;19.60;;;;;;;-1.94;92.33;100438.90;3427251;84;99262;-83
2021/12/07 21:34:14;;;;;;;41.83;19.90;;;;;;;-1.96;92.16;100438.94;3408167;84;99217;-82
2021/12/07 21:39:16;;;;;;;47.13;19.93;;;;;;;-1.99;92.04;100443.02;3425137;84;99016;-82
2021/12/07 21:44:17;;;;;;;48.07;22.43;;;;;;;-2.01;92.29;100437.13;3408789;84;99762;-82
2021/12/07 21:49:18;;;;;;;53.57;23.57;;;;;;;-2.03;92.20;100451.44;3519311;82;99216;-82
2021/12/07 21:54:20;;;;;;;49.55;20.00;;;;;;;-2.02;92.19;100456.30;3489632;81;99262;-83
2021/12/07 21:59:21;;;;;;;53.48;23.20;;;;;;;-2.02;92.20;100454.38;3523880;82;99296;-81
2021/12/07 22:04:22;;;;;;;49.43;22.33;;;;;;;-2.02;92.32;100444.95;3487628;82;99427;-82
2021/12/07 22:09:23;;;;;;;47.10;22.37;;;;;;;-2.05;92.36;100434.77;3503956;82;99088;-84
2021/12/07 22:14:24;;;;;;;55.38;22.98;;;;;;;-1.98;92.38;100449.23;3502387;81;99513;-82
2021/12/07 22:19:25;;;;;;;47.03;21.03;;;;;;;-1.99;92.27;100434.13;3508137;81;99211;-82
2021/12/07 22:24:26;;;;;;;49.70;22.97;;;;;;;-2.00;92.50;100428.48;3483775;82;99742;-82
2021/12/07 22:29:26;;;;;;;50.98;21.70;;;;;;;-1.99;92.55;100424.69;3517500;82;99203;-83
2021/12/07 22:34:30;;;;;;;54.43;26.17;;;;;;;-1.99;92.51;100419.29;3506811;82;99125;-82
2021/12/07 22:39:32;;;;;;;49.50;23.90;;;;;;;-2.01;92.43;100408.82;3496145;82;99075;-82
2021/12/07 22:44:32;;;;;;;50.95;23.57;;;;;;;-2.01;92.55;100377.81;3524715;82;99654;-81
2021/12/07 22:49:34;;;;;;;54.60;23.87;;;;;;;-2.02;92.48;100386.97;3516284;82;99191;-82
2021/12/07 22:54:35;;;;;;;50.73;24.10;;;;;;;-2.03;92.60;100390.77;3520091;82;99597;-82
2021/12/07 22:59:35;;;;;;;56.70;24.40;;;;;;;-2.01;92.46;100401.27;3498436;82;99848;-81
2021/12/07 23:04:37;;;;;;;58.53;24.60;;;;;;;-2.02;92.44;100384.84;3498747;82;99125;-82
2021/12/07 23:09:39;;;;;;;47.53;21.43;;;;;;;-2.06;92.42;100364.95;3520879;82;99065;-83
2021/12/07 23:14:40;;;;;;;51.07;23.43;;;;;;;-2.04;92.62;100359.52;3494636;82;99238;-82
2021/12/07 23:19:40;;;;;;;54.57;24.40;;;;;;;-2.04;92.46;100354.12;3520974;82;99167;-83
2021/12/07 23:24:42;;;;;;;49.47;23.03;;;;;;;-2.05;92.61;100347.67;3492899;82;99152;-82
2021/12/07 23:29:42;;;;;;;50.50;22.33;;;;;;;-2.01;92.70;100341.95;3525689;81;99280;-82
2021/12/07 23:34:43;;;;;;;52.37;23.23;;;;;;;-2.02;92.49;100334.95;3509289;81;99114;-81
2021/12/07 23:39:44;;;;;;;55.90;25.63;;;;;;;-2.05;92.57;100346.33;3507717;82;99069;-80
2021/12/07 23:44:45;;;;;;;51.23;22.93;;;;;;;-2.09;92.32;100327.81;3496952;81;99077;-82
2021/12/07 23:49:46;;;;;;;49.37;22.63;;;;;;;-2.13;92.68;100341.06;3528098;82;99186;-81
2021/12/07 23:54:47;;;;;;;50.80;21.87;;;;;;;-2.15;92.54;100328.43;3509969;82;99330;-81
2021/12/07 23:59:48;;;;;;;49.40;22.60;;;;;;;-2.17;92.50;100329.28;3516915;82;99159;-81
